sensor_id;sensor_type;location;lat;lon;timestamp;P1;durP1;ratioP1;P2;durP2;ratioP2
75634;SDS011;64227;48.724;9.104;2023-05-10T00:01:57;0.80;;;0.60;;
75634;SDS011;64227;48.724;9.104;2023-05-10T00:04:22;1.02;;;0.73;;
75634;SDS011;64227;48.724;9.104;2023-05-10T00:06:52;2.10;;;0.50;;
75634;SDS011;64227;48.724;9.104;2023-05-10T00:09:17;0.47;;;0.47;;
75634;SDS011;64227;48.724;9.104;2023-05-10T00:11:42;0.55;;;0.40;;
75634;SDS011;64227;48.724;9.104;2023-05-10T00:14:08;1.23;;;0.22;;
75634;SDS011;64227;48.724;9.104;2023-05-10T00:16:33;0.20;;;0.20;;
75634;SDS011;64227;48.724;9.104;2023-05-10T00:18:58;1.08;;;0.15;;
75634;SDS011;64227;48.724;9.104;2023-05-10T00:21:24;0.20;;;0.10;;
75634;SDS011;64227;48.724;9.104;2023-05-10T00:23:49;0.10;;;0.10;;
75634;SDS011;64227;48.724;9.104;2023-05-10T00:26:15;0.63;;;0.30;;
75634;SDS011;64227;48.724;9.104;2023-05-10T00:28:41;0.10;;;0.10;;
75634;SDS011;64227;48.724;9.104;2023-05-10T00:31:06;0.10;;;0.10;;
75634;SDS011;64227;48.724;9.104;2023-05-10T00:33:32;0.45;;;0.08;;
75634;SDS011;64227;48.724;9.104;2023-05-10T00:35:57;1.27;;;0.10;;
75634;SDS011;64227;48.724;9.104;2023-05-10T00:38:22;0.40;;;0.10;;
75634;SDS011;64227;48.724;9.104;2023-05-10T00:40:48;0.00;;;0.00;;
75634;SDS011;64227;48.724;9.104;2023-05-10T00:43:13;0.17;;;0.17;;
75634;SDS011;64227;48.724;9.104;2023-05-10T00:45:39;0.03;;;0.03;;
75634;SDS011;64227;48.724;9.104;2023-05-10T00:48:05;0.30;;;0.10;;
75634;SDS011;64227;48.724;9.104;2023-05-10T00:50:30;0.35;;;0.10;;
75634;SDS011;64227;48.724;9.104;2023-05-10T00:52:57;0.70;;;0.00;;
75634;SDS011;64227;48.724;9.104;2023-05-10T00:55:24;0.00;;;0.00;;
75634;SDS011;64227;48.724;9.104;2023-05-10T00:57:49;0.10;;;0.10;;
75634;SDS011;64227;48.724;9.104;2023-05-10T01:00:15;0.57;;;0.10;;
75634;SDS011;64227;48.724;9.104;2023-05-10T01:02:44;0.15;;;0.10;;
75634;SDS011;64227;48.724;9.104;2023-05-10T01:05:10;0.08;;;0.08;;
75634;SDS011;64227;48.724;9.104;2023-05-10T01:07:36;1.15;;;0.10;;
75634;SDS011;64227;48.724;9.104;2023-05-10T01:10:01;0.17;;;0.10;;
75634;SDS011;64227;48.724;9.104;2023-05-10T01:12:27;0.10;;;0.10;;
75634;SDS011;64227;48.724;9.104;2023-05-10T01:14:52;0.73;;;0.17;;
75634;SDS011;64227;48.724;9.104;2023-05-10T01:17:18;0.10;;;0.10;;
75634;SDS011;64227;48.724;9.104;2023-05-10T01:19:44;0.10;;;0.10;;
75634;SDS011;64227;48.724;9.104;2023-05-10T01:25:09;0.00;;;0.00;;
75634;SDS011;64227;48.724;9.104;2023-05-10T01:30:46;0.05;;;0.05;;
75634;SDS011;64227;48.724;9.104;2023-05-10T01:33:30;0.30;;;0.30;;
75634;SDS011;64227;48.724;9.104;2023-05-10T01:36:08;0.20;;;0.10;;
75634;SDS011;64227;48.724;9.104;2023-05-10T01:38:47;0.10;;;0.10;;
75634;SDS011;64227;48.724;9.104;2023-05-10T01:41:19;0.00;;;0.00;;
75634;SDS011;64227;48.724;9.104;2023-05-10T01:44:18;0.10;;;0.10;;
75634;SDS011;64227;48.724;9.104;2023-05-10T01:47:13;0.05;;;0.05;;
75634;SDS011;64227;48.724;9.104;2023-05-10T01:49:42;0.22;;;0.22;;
75634;SDS011;64227;48.724;9.104;2023-05-10T01:54:37;0.00;;;0.00;;
75634;SDS011;64227;48.724;9.104;2023-05-10T01:57:05;0.10;;;0.10;;
75634;SDS011;64227;48.724;9.104;2023-05-10T01:59:34;0.10;;;0.10;;
75634;SDS011;64227;48.724;9.104;2023-05-10T02:02:01;0.20;;;0.10;;
75634;SDS011;64227;48.724;9.104;2023-05-10T02:04:27;0.03;;;0.03;;
75634;SDS011;64227;48.724;9.104;2023-05-10T02:06:53;0.10;;;0.10;;
75634;SDS011;64227;48.724;9.104;2023-05-10T02:09:20;0.60;;;0.10;;
75634;SDS011;64227;48.724;9.104;2023-05-10T02:11:46;0.20;;;0.10;;
75634;SDS011;64227;48.724;9.104;2023-05-10T02:14:13;0.17;;;0.10;;
75634;SDS011;64227;48.724;9.104;2023-05-10T02:16:39;0.10;;;0.10;;
75634;SDS011;64227;48.724;9.104;2023-05-10T02:19:05;0.10;;;0.10;;
75634;SDS011;64227;48.724;9.104;2023-05-10T02:21:32;0.13;;;0.13;;
75634;SDS011;64227;48.724;9.104;2023-05-10T02:23:58;0.10;;;0.10;;
75634;SDS011;64227;48.724;9.104;2023-05-10T02:26:24;1.40;;;0.30;;
75634;SDS011;64227;48.724;9.104;2023-05-10T02:28:51;0.10;;;0.10;;
75634;SDS011;64227;48.724;9.104;2023-05-10T02:31:17;0.35;;;0.30;;
75634;SDS011;64227;48.724;9.104;2023-05-10T02:33:43;0.40;;;0.20;;
75634;SDS011;64227;48.724;9.104;2023-05-10T02:36:09;0.13;;;0.13;;
75634;SDS011;64227;48.724;9.104;2023-05-10T02:38:35;0.10;;;0.10;;
75634;SDS011;64227;48.724;9.104;2023-05-10T02:41:01;0.20;;;0.20;;
75634;SDS011;64227;48.724;9.104;2023-05-10T02:43:27;0.30;;;0.30;;
75634;SDS011;64227;48.724;9.104;2023-05-10T02:45:55;0.30;;;0.30;;
75634;SDS011;64227;48.724;9.104;2023-05-10T02:48:20;0.30;;;0.30;;
75634;SDS011;64227;48.724;9.104;2023-05-10T02:50:46;0.80;;;0.30;;
75634;SDS011;64227;48.724;9.104;2023-05-10T02:53:15;0.57;;;0.35;;
75634;SDS011;64227;48.724;9.104;2023-05-10T02:55:41;0.50;;;0.25;;
75634;SDS011;64227;48.724;9.104;2023-05-10T02:58:08;2.47;;;0.40;;
75634;SDS011;64227;48.724;9.104;2023-05-10T03:00:33;0.30;;;0.30;;
75634;SDS011;64227;48.724;9.104;2023-05-10T03:03:00;0.80;;;0.40;;
75634;SDS011;64227;48.724;9.104;2023-05-10T03:05:26;1.33;;;0.38;;
75634;SDS011;64227;48.724;9.104;2023-05-10T03:07:51;0.75;;;0.35;;
75634;SDS011;64227;48.724;9.104;2023-05-10T03:10:17;0.40;;;0.40;;
75634;SDS011;64227;48.724;9.104;2023-05-10T03:15:59;0.50;;;0.50;;
75634;SDS011;64227;48.724;9.104;2023-05-10T03:19:24;0.35;;;0.35;;
75634;SDS011;64227;48.724;9.104;2023-05-10T03:21:38;0.75;;;0.30;;
75634;SDS011;64227;48.724;9.104;2023-05-10T03:24:07;0.60;;;0.50;;
75634;SDS011;64227;48.724;9.104;2023-05-10T03:26:34;0.50;;;0.50;;
75634;SDS011;64227;48.724;9.104;2023-05-10T03:29:00;0.47;;;0.47;;
75634;SDS011;64227;48.724;9.104;2023-05-10T03:31:26;0.90;;;0.90;;
75634;SDS011;64227;48.724;9.104;2023-05-10T03:33:52;0.85;;;0.40;;
75634;SDS011;64227;48.724;9.104;2023-05-10T03:36:18;0.60;;;0.60;;
75634;SDS011;64227;48.724;9.104;2023-05-10T03:38:44;0.50;;;0.38;;
75634;SDS011;64227;48.724;9.104;2023-05-10T03:41:09;1.52;;;0.50;;
75634;SDS011;64227;48.724;9.104;2023-05-10T03:43:35;0.52;;;0.30;;
75634;SDS011;64227;48.724;9.104;2023-05-10T03:46:04;1.02;;;0.73;;
75634;SDS011;64227;48.724;9.104;2023-05-10T03:48:29;0.50;;;0.47;;
75634;SDS011;64227;48.724;9.104;2023-05-10T03:50:55;0.73;;;0.60;;
75634;SDS011;64227;48.724;9.104;2023-05-10T03:53:20;1.65;;;0.63;;
75634;SDS011;64227;48.724;9.104;2023-05-10T03:55:45;0.80;;;0.73;;
75634;SDS011;64227;48.724;9.104;2023-05-10T03:58:11;0.60;;;0.60;;
75634;SDS011;64227;48.724;9.104;2023-05-10T04:00:37;0.65;;;0.60;;
75634;SDS011;64227;48.724;9.104;2023-05-10T04:03:02;1.23;;;0.52;;
75634;SDS011;64227;48.724;9.104;2023-05-10T04:05:28;0.50;;;0.40;;
75634;SDS011;64227;48.724;9.104;2023-05-10T04:07:54;0.63;;;0.40;;
75634;SDS011;64227;48.724;9.104;2023-05-10T04:10:19;0.50;;;0.50;;
75634;SDS011;64227;48.724;9.104;2023-05-10T04:12:46;0.90;;;0.60;;
75634;SDS011;64227;48.724;9.104;2023-05-10T04:15:11;3.10;;;0.80;;
75634;SDS011;64227;48.724;9.104;2023-05-10T04:17:36;0.55;;;0.50;;
75634;SDS011;64227;48.724;9.104;2023-05-10T04:20:02;0.70;;;0.70;;
75634;SDS011;64227;48.724;9.104;2023-05-10T04:22:28;2.17;;;0.47;;
75634;SDS011;64227;48.724;9.104;2023-05-10T04:24:54;2.25;;;0.60;;
75634;SDS011;64227;48.724;9.104;2023-05-10T04:27:19;1.13;;;0.50;;
75634;SDS011;64227;48.724;9.104;2023-05-10T04:29:44;0.95;;;0.70;;
75634;SDS011;64227;48.724;9.104;2023-05-10T04:32:10;0.70;;;0.60;;
75634;SDS011;64227;48.724;9.104;2023-05-10T04:34:35;0.50;;;0.50;;
75634;SDS011;64227;48.724;9.104;2023-05-10T04:37:01;0.88;;;0.80;;
75634;SDS011;64227;48.724;9.104;2023-05-10T04:39:26;0.50;;;0.50;;
75634;SDS011;64227;48.724;9.104;2023-05-10T04:41:52;0.88;;;0.60;;
75634;SDS011;64227;48.724;9.104;2023-05-10T04:44:17;2.17;;;0.77;;
75634;SDS011;64227;48.724;9.104;2023-05-10T04:46:42;0.93;;;0.50;;
75634;SDS011;64227;48.724;9.104;2023-05-10T04:49:07;0.85;;;0.63;;
75634;SDS011;64227;48.724;9.104;2023-05-10T04:51:33;1.27;;;0.50;;
75634;SDS011;64227;48.724;9.104;2023-05-10T04:53:58;2.67;;;0.65;;
75634;SDS011;64227;48.724;9.104;2023-05-10T04:56:23;0.55;;;0.55;;
75634;SDS011;64227;48.724;9.104;2023-05-10T04:58:49;1.25;;;0.70;;
75634;SDS011;64227;48.724;9.104;2023-05-10T05:01:14;1.63;;;1.05;;
75634;SDS011;64227;48.724;9.104;2023-05-10T05:03:40;1.17;;;0.80;;
75634;SDS011;64227;48.724;9.104;2023-05-10T05:06:05;0.80;;;0.70;;
75634;SDS011;64227;48.724;9.104;2023-05-10T05:08:30;0.73;;;0.73;;
75634;SDS011;64227;48.724;9.104;2023-05-10T05:10:56;1.10;;;0.88;;
75634;SDS011;64227;48.724;9.104;2023-05-10T05:13:21;1.05;;;0.60;;
75634;SDS011;64227;48.724;9.104;2023-05-10T05:15:46;1.13;;;0.70;;
75634;SDS011;64227;48.724;9.104;2023-05-10T05:18:12;1.73;;;1.10;;
75634;SDS011;64227;48.724;9.104;2023-05-10T05:20:37;1.42;;;0.90;;
75634;SDS011;64227;48.724;9.104;2023-05-10T05:23:02;1.27;;;0.90;;
75634;SDS011;64227;48.724;9.104;2023-05-10T05:25:28;2.17;;;0.80;;
75634;SDS011;64227;48.724;9.104;2023-05-10T05:27:53;0.95;;;0.77;;
75634;SDS011;64227;48.724;9.104;2023-05-10T05:30:19;0.80;;;0.80;;
75634;SDS011;64227;48.724;9.104;2023-05-10T05:32:44;1.27;;;0.93;;
75634;SDS011;64227;48.724;9.104;2023-05-10T05:35:09;1.15;;;0.77;;
75634;SDS011;64227;48.724;9.104;2023-05-10T05:37:35;2.00;;;0.90;;
75634;SDS011;64227;48.724;9.104;2023-05-10T05:40:00;1.25;;;1.00;;
75634;SDS011;64227;48.724;9.104;2023-05-10T05:42:26;3.83;;;0.90;;
75634;SDS011;64227;48.724;9.104;2023-05-10T05:44:52;0.98;;;0.75;;
75634;SDS011;64227;48.724;9.104;2023-05-10T05:47:17;1.05;;;0.90;;
75634;SDS011;64227;48.724;9.104;2023-05-10T05:49:42;1.83;;;1.00;;
75634;SDS011;64227;48.724;9.104;2023-05-10T05:52:10;1.58;;;0.70;;
75634;SDS011;64227;48.724;9.104;2023-05-10T05:54:36;1.00;;;0.80;;
75634;SDS011;64227;48.724;9.104;2023-05-10T05:57:01;1.08;;;0.98;;
75634;SDS011;64227;48.724;9.104;2023-05-10T05:59:26;1.55;;;1.08;;
75634;SDS011;64227;48.724;9.104;2023-05-10T06:01:52;1.05;;;0.95;;
75634;SDS011;64227;48.724;9.104;2023-05-10T06:04:17;0.75;;;0.50;;
75634;SDS011;64227;48.724;9.104;2023-05-10T06:06:43;1.00;;;0.88;;
75634;SDS011;64227;48.724;9.104;2023-05-10T06:09:08;1.50;;;0.60;;
75634;SDS011;64227;48.724;9.104;2023-05-10T06:11:34;0.93;;;0.50;;
75634;SDS011;64227;48.724;9.104;2023-05-10T06:13:59;0.70;;;0.60;;
75634;SDS011;64227;48.724;9.104;2023-05-10T06:16:25;0.65;;;0.65;;
75634;SDS011;64227;48.724;9.104;2023-05-10T06:18:50;0.70;;;0.70;;
75634;SDS011;64227;48.724;9.104;2023-05-10T06:21:16;0.73;;;0.60;;
75634;SDS011;64227;48.724;9.104;2023-05-10T06:23:41;2.72;;;1.13;;
75634;SDS011;64227;48.724;9.104;2023-05-10T06:26:07;0.70;;;0.70;;
75634;SDS011;64227;48.724;9.104;2023-05-10T06:28:32;0.73;;;0.70;;
75634;SDS011;64227;48.724;9.104;2023-05-10T06:30:58;1.25;;;0.82;;
75634;SDS011;64227;48.724;9.104;2023-05-10T06:33:24;1.23;;;0.77;;
75634;SDS011;64227;48.724;9.104;2023-05-10T06:35:49;0.85;;;0.85;;
75634;SDS011;64227;48.724;9.104;2023-05-10T06:38:14;4.50;;;0.60;;
75634;SDS011;64227;48.724;9.104;2023-05-10T06:40:43;0.80;;;0.80;;
75634;SDS011;64227;48.724;9.104;2023-05-10T06:43:08;1.40;;;0.85;;
75634;SDS011;64227;48.724;9.104;2023-05-10T06:45:34;1.42;;;0.82;;
75634;SDS011;64227;48.724;9.104;2023-05-10T06:48:00;0.85;;;0.70;;
75634;SDS011;64227;48.724;9.104;2023-05-10T06:50:26;2.35;;;1.33;;
75634;SDS011;64227;48.724;9.104;2023-05-10T06:52:51;1.10;;;0.98;;
75634;SDS011;64227;48.724;9.104;2023-05-10T06:55:16;0.80;;;0.70;;
75634;SDS011;64227;48.724;9.104;2023-05-10T06:57:42;1.00;;;0.98;;
75634;SDS011;64227;48.724;9.104;2023-05-10T07:00:07;1.45;;;1.00;;
75634;SDS011;64227;48.724;9.104;2023-05-10T07:02:34;1.23;;;0.93;;
75634;SDS011;64227;48.724;9.104;2023-05-10T07:04:59;0.77;;;0.70;;
75634;SDS011;64227;48.724;9.104;2023-05-10T07:07:25;0.95;;;0.85;;
75634;SDS011;64227;48.724;9.104;2023-05-10T07:09:50;4.18;;;1.23;;
75634;SDS011;64227;48.724;9.104;2023-05-10T07:12:16;1.15;;;0.90;;
75634;SDS011;64227;48.724;9.104;2023-05-10T07:14:41;1.42;;;1.00;;
75634;SDS011;64227;48.724;9.104;2023-05-10T07:17:07;0.85;;;0.80;;
75634;SDS011;64227;48.724;9.104;2023-05-10T07:19:32;1.65;;;0.68;;
75634;SDS011;64227;48.724;9.104;2023-05-10T07:21:57;2.33;;;1.17;;
75634;SDS011;64227;48.724;9.104;2023-05-10T07:24:23;1.63;;;1.20;;
75634;SDS011;64227;48.724;9.104;2023-05-10T07:26:49;3.03;;;0.95;;
75634;SDS011;64227;48.724;9.104;2023-05-10T07:29:14;1.58;;;0.70;;
75634;SDS011;64227;48.724;9.104;2023-05-10T07:31:39;1.40;;;0.90;;
75634;SDS011;64227;48.724;9.104;2023-05-10T07:34:06;2.05;;;0.75;;
75634;SDS011;64227;48.724;9.104;2023-05-10T07:36:32;0.85;;;0.60;;
75634;SDS011;64227;48.724;9.104;2023-05-10T07:38:57;0.70;;;0.65;;
75634;SDS011;64227;48.724;9.104;2023-05-10T07:41:23;1.02;;;0.68;;
75634;SDS011;64227;48.724;9.104;2023-05-10T07:43:48;1.50;;;0.52;;
75634;SDS011;64227;48.724;9.104;2023-05-10T07:46:13;0.45;;;0.45;;
75634;SDS011;64227;48.724;9.104;2023-05-10T07:48:39;1.52;;;0.75;;
75634;SDS011;64227;48.724;9.104;2023-05-10T07:51:04;1.60;;;0.70;;
75634;SDS011;64227;48.724;9.104;2023-05-10T07:53:31;3.53;;;0.75;;
75634;SDS011;64227;48.724;9.104;2023-05-10T07:55:57;1.55;;;0.57;;
75634;SDS011;64227;48.724;9.104;2023-05-10T07:58:23;2.35;;;0.80;;
75634;SDS011;64227;48.724;9.104;2023-05-10T08:00:48;0.77;;;0.43;;
75634;SDS011;64227;48.724;9.104;2023-05-10T08:03:14;2.53;;;0.70;;
75634;SDS011;64227;48.724;9.104;2023-05-10T08:05:39;1.80;;;0.80;;
75634;SDS011;64227;48.724;9.104;2023-05-10T08:08:05;0.85;;;0.65;;
75634;SDS011;64227;48.724;9.104;2023-05-10T08:10:30;0.60;;;0.60;;
75634;SDS011;64227;48.724;9.104;2023-05-10T08:12:56;1.33;;;0.65;;
75634;SDS011;64227;48.724;9.104;2023-05-10T08:15:23;1.27;;;0.57;;
75634;SDS011;64227;48.724;9.104;2023-05-10T08:17:48;1.73;;;0.65;;
75634;SDS011;64227;48.724;9.104;2023-05-10T08:20:13;1.88;;;0.50;;
75634;SDS011;64227;48.724;9.104;2023-05-10T08:22:41;0.32;;;0.32;;
75634;SDS011;64227;48.724;9.104;2023-05-10T08:25:07;1.63;;;0.40;;
75634;SDS011;64227;48.724;9.104;2023-05-10T08:27:32;0.35;;;0.35;;
75634;SDS011;64227;48.724;9.104;2023-05-10T08:29:57;1.25;;;0.45;;
75634;SDS011;64227;48.724;9.104;2023-05-10T08:32:23;0.60;;;0.40;;
75634;SDS011;64227;48.724;9.104;2023-05-10T08:34:48;0.52;;;0.52;;
75634;SDS011;64227;48.724;9.104;2023-05-10T08:37:13;0.47;;;0.45;;
75634;SDS011;64227;48.724;9.104;2023-05-10T08:39:39;0.38;;;0.38;;
75634;SDS011;64227;48.724;9.104;2023-05-10T08:42:05;1.20;;;0.40;;
75634;SDS011;64227;48.724;9.104;2023-05-10T08:44:31;1.55;;;0.38;;
75634;SDS011;64227;48.724;9.104;2023-05-10T08:46:57;0.90;;;0.50;;
75634;SDS011;64227;48.724;9.104;2023-05-10T08:49:24;0.40;;;0.40;;
75634;SDS011;64227;48.724;9.104;2023-05-10T08:51:52;0.88;;;0.43;;
75634;SDS011;64227;48.724;9.104;2023-05-10T08:56:45;0.53;;;0.20;;
75634;SDS011;64227;48.724;9.104;2023-05-10T08:59:10;0.28;;;0.28;;
75634;SDS011;64227;48.724;9.104;2023-05-10T09:01:37;2.83;;;0.32;;
75634;SDS011;64227;48.724;9.104;2023-05-10T09:04:02;0.85;;;0.43;;
75634;SDS011;64227;48.724;9.104;2023-05-10T09:06:29;0.77;;;0.30;;
75634;SDS011;64227;48.724;9.104;2023-05-10T09:08:54;0.82;;;0.22;;
75634;SDS011;64227;48.724;9.104;2023-05-10T09:11:20;0.40;;;0.28;;
75634;SDS011;64227;48.724;9.104;2023-05-10T09:13:45;0.20;;;0.20;;
75634;SDS011;64227;48.724;9.104;2023-05-10T09:16:12;0.50;;;0.30;;
75634;SDS011;64227;48.724;9.104;2023-05-10T09:18:37;0.43;;;0.20;;
75634;SDS011;64227;48.724;9.104;2023-05-10T09:21:02;0.75;;;0.32;;
75634;SDS011;64227;48.724;9.104;2023-05-10T09:23:28;1.83;;;0.22;;
75634;SDS011;64227;48.724;9.104;2023-05-10T09:26:06;0.30;;;0.30;;
75634;SDS011;64227;48.724;9.104;2023-05-10T09:28:33;1.65;;;0.32;;
75634;SDS011;64227;48.724;9.104;2023-05-10T09:30:59;0.13;;;0.13;;
75634;SDS011;64227;48.724;9.104;2023-05-10T09:33:24;0.10;;;0.10;;
75634;SDS011;64227;48.724;9.104;2023-05-10T09:35:50;1.15;;;0.30;;
75634;SDS011;64227;48.724;9.104;2023-05-10T09:38:16;0.85;;;0.30;;
75634;SDS011;64227;48.724;9.104;2023-05-10T09:40:42;0.40;;;0.30;;
75634;SDS011;64227;48.724;9.104;2023-05-10T09:43:19;0.20;;;0.20;;
75634;SDS011;64227;48.724;9.104;2023-05-10T09:45:45;1.35;;;0.20;;
75634;SDS011;64227;48.724;9.104;2023-05-10T09:48:14;0.20;;;0.20;;
75634;SDS011;64227;48.724;9.104;2023-05-10T09:50:39;1.58;;;0.65;;
75634;SDS011;64227;48.724;9.104;2023-05-10T09:53:05;0.68;;;0.22;;
75634;SDS011;64227;48.724;9.104;2023-05-10T09:58:12;1.45;;;0.30;;
75634;SDS011;64227;48.724;9.104;2023-05-10T10:00:38;0.30;;;0.20;;
75634;SDS011;64227;48.724;9.104;2023-05-10T10:03:05;0.30;;;0.30;;
75634;SDS011;64227;48.724;9.104;2023-05-10T10:05:31;0.90;;;0.20;;
75634;SDS011;64227;48.724;9.104;2023-05-10T10:08:01;1.20;;;0.30;;
75634;SDS011;64227;48.724;9.104;2023-05-10T10:10:28;0.28;;;0.25;;
75634;SDS011;64227;48.724;9.104;2023-05-10T10:12:54;0.35;;;0.20;;
75634;SDS011;64227;48.724;9.104;2023-05-10T10:15:20;0.30;;;0.10;;
75634;SDS011;64227;48.724;9.104;2023-05-10T10:17:45;0.65;;;0.20;;
75634;SDS011;64227;48.724;9.104;2023-05-10T10:20:11;1.15;;;0.30;;
75634;SDS011;64227;48.724;9.104;2023-05-10T10:22:37;0.40;;;0.20;;
75634;SDS011;64227;48.724;9.104;2023-05-10T10:25:03;0.50;;;0.30;;
75634;SDS011;64227;48.724;9.104;2023-05-10T10:27:39;0.75;;;0.30;;
75634;SDS011;64227;48.724;9.104;2023-05-10T10:30:30;0.85;;;0.10;;
75634;SDS011;64227;48.724;9.104;2023-05-10T10:35:58;0.10;;;0.10;;
75634;SDS011;64227;48.724;9.104;2023-05-10T10:38:24;0.60;;;0.20;;
75634;SDS011;64227;48.724;9.104;2023-05-10T10:40:58;1.80;;;0.15;;
75634;SDS011;64227;48.724;9.104;2023-05-10T10:43:27;0.32;;;0.30;;
75634;SDS011;64227;48.724;9.104;2023-05-10T10:46:13;0.40;;;0.28;;
75634;SDS011;64227;48.724;9.104;2023-05-10T10:48:40;0.20;;;0.20;;
75634;SDS011;64227;48.724;9.104;2023-05-10T10:51:06;3.05;;;0.43;;
75634;SDS011;64227;48.724;9.104;2023-05-10T10:53:31;0.35;;;0.30;;
75634;SDS011;64227;48.724;9.104;2023-05-10T10:56:10;1.85;;;0.10;;
75634;SDS011;64227;48.724;9.104;2023-05-10T10:58:38;1.13;;;0.30;;
75634;SDS011;64227;48.724;9.104;2023-05-10T11:01:17;1.25;;;0.22;;
75634;SDS011;64227;48.724;9.104;2023-05-10T11:06:32;1.25;;;0.40;;
75634;SDS011;64227;48.724;9.104;2023-05-10T11:09:06;0.13;;;0.13;;
75634;SDS011;64227;48.724;9.104;2023-05-10T11:11:32;2.05;;;0.22;;
75634;SDS011;64227;48.724;9.104;2023-05-10T11:14:06;0.73;;;0.40;;
75634;SDS011;64227;48.724;9.104;2023-05-10T11:16:41;3.22;;;0.17;;
75634;SDS011;64227;48.724;9.104;2023-05-10T11:19:08;1.20;;;0.20;;
75634;SDS011;64227;48.724;9.104;2023-05-10T11:21:44;0.20;;;0.20;;
75634;SDS011;64227;48.724;9.104;2023-05-10T11:24:21;0.22;;;0.22;;
75634;SDS011;64227;48.724;9.104;2023-05-10T11:29:15;1.13;;;0.35;;
75634;SDS011;64227;48.724;9.104;2023-05-10T11:31:44;2.42;;;0.85;;
75634;SDS011;64227;48.724;9.104;2023-05-10T11:34:10;0.20;;;0.10;;
75634;SDS011;64227;48.724;9.104;2023-05-10T11:36:36;0.15;;;0.15;;
75634;SDS011;64227;48.724;9.104;2023-05-10T11:39:02;3.50;;;0.40;;
75634;SDS011;64227;48.724;9.104;2023-05-10T11:41:29;1.13;;;0.20;;
75634;SDS011;64227;48.724;9.104;2023-05-10T11:43:55;1.50;;;0.30;;
75634;SDS011;64227;48.724;9.104;2023-05-10T11:46:22;0.68;;;0.30;;
75634;SDS011;64227;48.724;9.104;2023-05-10T11:48:52;0.25;;;0.20;;
75634;SDS011;64227;48.724;9.104;2023-05-10T11:51:21;0.20;;;0.20;;
75634;SDS011;64227;48.724;9.104;2023-05-10T11:53:49;1.48;;;0.32;;
75634;SDS011;64227;48.724;9.104;2023-05-10T11:56:23;1.70;;;0.38;;
75634;SDS011;64227;48.724;9.104;2023-05-10T11:58:56;0.40;;;0.38;;
75634;SDS011;64227;48.724;9.104;2023-05-10T12:01:24;0.25;;;0.22;;
75634;SDS011;64227;48.724;9.104;2023-05-10T12:03:51;0.43;;;0.30;;
75634;SDS011;64227;48.724;9.104;2023-05-10T12:06:18;0.20;;;0.17;;
75634;SDS011;64227;48.724;9.104;2023-05-10T12:08:45;2.78;;;0.40;;
75634;SDS011;64227;48.724;9.104;2023-05-10T12:11:11;0.77;;;0.57;;
75634;SDS011;64227;48.724;9.104;2023-05-10T12:13:41;4.18;;;0.57;;
75634;SDS011;64227;48.724;9.104;2023-05-10T12:18:40;2.03;;;0.40;;
75634;SDS011;64227;48.724;9.104;2023-05-10T12:21:05;1.15;;;0.30;;
75634;SDS011;64227;48.724;9.104;2023-05-10T12:23:30;0.40;;;0.40;;
75634;SDS011;64227;48.724;9.104;2023-05-10T12:26:01;0.98;;;0.40;;
75634;SDS011;64227;48.724;9.104;2023-05-10T12:28:29;1.08;;;0.40;;
75634;SDS011;64227;48.724;9.104;2023-05-10T12:30:55;0.52;;;0.40;;
75634;SDS011;64227;48.724;9.104;2023-05-10T12:33:22;0.93;;;0.50;;
75634;SDS011;64227;48.724;9.104;2023-05-10T12:35:48;0.95;;;0.30;;
75634;SDS011;64227;48.724;9.104;2023-05-10T12:38:28;0.85;;;0.30;;
75634;SDS011;64227;48.724;9.104;2023-05-10T12:40:59;0.63;;;0.40;;
75634;SDS011;64227;48.724;9.104;2023-05-10T12:43:25;1.73;;;1.50;;
75634;SDS011;64227;48.724;9.104;2023-05-10T12:45:50;2.15;;;0.50;;
75634;SDS011;64227;48.724;9.104;2023-05-10T12:48:15;1.70;;;0.43;;
75634;SDS011;64227;48.724;9.104;2023-05-10T12:50:41;0.63;;;0.40;;
75634;SDS011;64227;48.724;9.104;2023-05-10T12:53:06;2.17;;;0.50;;
75634;SDS011;64227;48.724;9.104;2023-05-10T12:55:31;0.60;;;0.40;;
75634;SDS011;64227;48.724;9.104;2023-05-10T12:57:57;0.30;;;0.30;;
75634;SDS011;64227;48.724;9.104;2023-05-10T13:00:22;1.38;;;0.50;;
75634;SDS011;64227;48.724;9.104;2023-05-10T13:02:47;1.02;;;0.38;;
75634;SDS011;64227;48.724;9.104;2023-05-10T13:05:13;1.15;;;0.40;;
75634;SDS011;64227;48.724;9.104;2023-05-10T13:07:38;2.50;;;0.55;;
75634;SDS011;64227;48.724;9.104;2023-05-10T13:10:04;0.82;;;0.35;;
75634;SDS011;64227;48.724;9.104;2023-05-10T13:12:30;1.20;;;0.25;;
75634;SDS011;64227;48.724;9.104;2023-05-10T13:14:56;0.30;;;0.30;;
75634;SDS011;64227;48.724;9.104;2023-05-10T13:17:21;0.95;;;0.20;;
75634;SDS011;64227;48.724;9.104;2023-05-10T13:19:46;1.17;;;0.30;;
75634;SDS011;64227;48.724;9.104;2023-05-10T13:22:12;0.65;;;0.35;;
75634;SDS011;64227;48.724;9.104;2023-05-10T13:24:37;1.45;;;0.40;;
75634;SDS011;64227;48.724;9.104;2023-05-10T13:27:02;1.75;;;0.50;;
75634;SDS011;64227;48.724;9.104;2023-05-10T13:29:27;0.60;;;0.40;;
75634;SDS011;64227;48.724;9.104;2023-05-10T13:31:53;0.73;;;0.28;;
75634;SDS011;64227;48.724;9.104;2023-05-10T13:34:18;2.25;;;0.50;;
75634;SDS011;64227;48.724;9.104;2023-05-10T13:36:45;0.60;;;0.43;;
75634;SDS011;64227;48.724;9.104;2023-05-10T13:39:11;1.25;;;0.43;;
75634;SDS011;64227;48.724;9.104;2023-05-10T13:41:37;2.15;;;0.30;;
75634;SDS011;64227;48.724;9.104;2023-05-10T13:44:02;0.32;;;0.30;;
75634;SDS011;64227;48.724;9.104;2023-05-10T13:46:28;1.58;;;0.50;;
75634;SDS011;64227;48.724;9.104;2023-05-10T13:48:54;0.75;;;0.50;;
75634;SDS011;64227;48.724;9.104;2023-05-10T13:51:19;0.32;;;0.32;;
75634;SDS011;64227;48.724;9.104;2023-05-10T13:53:45;1.80;;;0.57;;
75634;SDS011;64227;48.724;9.104;2023-05-10T13:56:12;1.95;;;0.50;;
75634;SDS011;64227;48.724;9.104;2023-05-10T13:58:37;0.63;;;0.35;;
75634;SDS011;64227;48.724;9.104;2023-05-10T14:01:03;0.40;;;0.40;;
75634;SDS011;64227;48.724;9.104;2023-05-10T14:03:29;0.88;;;0.47;;
75634;SDS011;64227;48.724;9.104;2023-05-10T14:05:55;0.40;;;0.40;;
75634;SDS011;64227;48.724;9.104;2023-05-10T14:08:20;0.63;;;0.30;;
75634;SDS011;64227;48.724;9.104;2023-05-10T14:10:46;0.35;;;0.35;;
75634;SDS011;64227;48.724;9.104;2023-05-10T14:13:11;1.27;;;0.50;;
75634;SDS011;64227;48.724;9.104;2023-05-10T14:15:37;0.82;;;0.40;;
75634;SDS011;64227;48.724;9.104;2023-05-10T14:18:02;0.35;;;0.30;;
75634;SDS011;64227;48.724;9.104;2023-05-10T14:20:27;0.40;;;0.20;;
75634;SDS011;64227;48.724;9.104;2023-05-10T14:22:53;2.38;;;0.65;;
75634;SDS011;64227;48.724;9.104;2023-05-10T14:25:19;0.50;;;0.40;;
75634;SDS011;64227;48.724;9.104;2023-05-10T14:27:44;1.27;;;0.40;;
75634;SDS011;64227;48.724;9.104;2023-05-10T14:30:10;1.05;;;0.40;;
75634;SDS011;64227;48.724;9.104;2023-05-10T14:32:35;0.30;;;0.22;;
75634;SDS011;64227;48.724;9.104;2023-05-10T14:35:01;1.88;;;0.50;;
75634;SDS011;64227;48.724;9.104;2023-05-10T14:37:27;0.47;;;0.20;;
75634;SDS011;64227;48.724;9.104;2023-05-10T14:39:52;1.13;;;0.38;;
75634;SDS011;64227;48.724;9.104;2023-05-10T14:42:18;1.50;;;0.20;;
75634;SDS011;64227;48.724;9.104;2023-05-10T14:44:44;0.88;;;0.30;;
75634;SDS011;64227;48.724;9.104;2023-05-10T14:47:09;1.15;;;0.38;;
75634;SDS011;64227;48.724;9.104;2023-05-10T14:49:34;0.22;;;0.22;;
75634;SDS011;64227;48.724;9.104;2023-05-10T14:52:00;1.23;;;0.30;;
75634;SDS011;64227;48.724;9.104;2023-05-10T14:54:25;0.70;;;0.20;;
75634;SDS011;64227;48.724;9.104;2023-05-10T14:56:50;0.90;;;0.60;;
75634;SDS011;64227;48.724;9.104;2023-05-10T14:59:16;1.35;;;0.28;;
75634;SDS011;64227;48.724;9.104;2023-05-10T15:01:41;0.30;;;0.30;;
75634;SDS011;64227;48.724;9.104;2023-05-10T15:04:07;0.68;;;0.32;;
75634;SDS011;64227;48.724;9.104;2023-05-10T15:06:33;0.68;;;0.63;;
75634;SDS011;64227;48.724;9.104;2023-05-10T15:09:00;0.50;;;0.30;;
75634;SDS011;64227;48.724;9.104;2023-05-10T15:11:26;0.60;;;0.40;;
75634;SDS011;64227;48.724;9.104;2023-05-10T15:13:52;0.30;;;0.30;;